Terminal Aerodrome Forecast
Issued by NWS Milwaukee/Sullivan, WI

Current Version | Previous Version | Text Only | Print | Product List | Glossary On
Versions: 1 2 3 4 5 6 7 8 9 10 11 12 13 14 15 16 17 18 19 20 21 22 23 24 25 26 27 28 29 30 31 32 33 34 35 36 37 38 39 40 41 42 43 44 45 46 47 48 49 50
000
FTUS43 KMKX 111721
TAFMSN
TAF
KMSN 111721Z 1118/1218 20005KT 6SM -SN OVC060
     FM112000 VRB04KT 1SM -SN OVC010
     FM112100 32006KT P6SM VCSH OVC010
     FM112200 33008KT P6SM VCSH OVC008
     FM112300 33010KT P6SM OVC010
     FM120000 34011G23KT P6SM OVC010
     FM120500 34016G28KT P6SM BKN035
     FM121600 32013KT P6SM SCT250=

USA.gov is the U.S. government's official web portal to all federal, state and local government web resources and services.